WetterOnline ( https://www.wetteronline.de )

Wetter aktuell Albstadt

Aktuelles Wetter: Messstetten (900m)

6-stündlich | Neueste Meldungen
Ortszeit Temperatur Wetter
Do, 29.09. 2:00 5.3° C bedeckt
Mi, 28.09. 20:00 5.2° C leichter Regen
Mi, 28.09. 14:00 6.2° C Sprühregen
Mi, 28.09. 8:00 6.7° C leichter Regen
Mi, 28.09. 2:00 6.0° C Regen
Di, 27.09. 20:00 5.5° C Sprühregen
Di, 27.09. 14:00 6.6° C leichter Regen
Di, 27.09. 8:00 4.4° C leichter Regen
Ortszeit Temperatur Wetter
Do, 29.09. 6:30 4.9° C bedeckt
Do, 29.09. 6:20 4.9° C bedeckt
Do, 29.09. 6:10 5.0° C bedeckt
Do, 29.09. 6:00 5.0° C bedeckt
Do, 29.09. 5:50 5.0° C bedeckt
Do, 29.09. 5:40 5.1° C bedeckt
Do, 29.09. 5:30 5.1° C bedeckt
Do, 29.09. 5:00 5.3° C bewölkt
Do, 29.09. 4:30 5.3° C Sprühregen
Do, 29.09. 4:00 5.3° C leichter Regen
Do, 29.09. 3:30 5.3° C bedeckt
Ortszeit Relative Feuchte Sichtweite
Do, 29.09. 2:00 96% 16 km
Mi, 28.09. 20:00 95% 13 km
Mi, 28.09. 14:00 93% 40 km
Mi, 28.09. 8:00 95% 13 km
Mi, 28.09. 2:00 91% 45 km
Di, 27.09. 20:00 93% 45 km
Di, 27.09. 14:00 83% 21 km
Di, 27.09. 8:00 93% 21 km
Ortszeit Relative Feuchte Sichtweite
Do, 29.09. 6:30 95% 30 km
Do, 29.09. 6:20 95% -
Do, 29.09. 6:10 93% -
Do, 29.09. 6:00 93% 50 km
Do, 29.09. 5:50 93% -
Do, 29.09. 5:40 95% -
Do, 29.09. 5:30 96% 12 km
Do, 29.09. 5:00 96% 16 km
Do, 29.09. 4:30 96% 10 km
Do, 29.09. 4:00 96% 10 km
Do, 29.09. 3:30 95% 17 km
Ortszeit Niederschlagsmenge Niederschlagsart
Do, 29.09. 2:00 0.1 l/m2 in 6 Std. Regen
Mi, 28.09. 20:00 7 l/m2 in 12 Std. Regen
Mi, 28.09. 14:00 4 l/m2 in 6 Std. Regen
Mi, 28.09. 8:00 4 l/m2 in 12 Std. Regen
Mi, 28.09. 2:00 2 l/m2 in 6 Std. Regen
Di, 27.09. 20:00 5 l/m2 in 12 Std. Regen
Di, 27.09. 14:00 0.7 l/m2 in 6 Std. Regen
Di, 27.09. 8:00 11 l/m2 in 12 Std. Regen
Ortszeit Niederschlagsmenge Niederschlagsart
Do, 29.09. 6:30 0.0 l/m2 in 1 Std. -
Do, 29.09. 6:20 keine Meldung -
Do, 29.09. 6:10 keine Meldung -
Do, 29.09. 6:00 0.0 l/m2 in 1 Std. -
Do, 29.09. 5:50 keine Meldung -
Do, 29.09. 5:40 keine Meldung -
Do, 29.09. 5:30 0.0 l/m2 in 1 Std. -
Do, 29.09. 5:00 0.1 l/m2 in 1 Std. Regen
Do, 29.09. 4:30 0.1 l/m2 in 1 Std. -
Do, 29.09. 4:00 <0.05 l/m2 in 1 Std. Regen
Do, 29.09. 3:30 <0.05 l/m2 in 1 Std. Schneeregen
Ortszeit Stärke Spitze Richtung
km/h Bft. km/h Grad Sektor
Do, 29.09. 2:00 6 1 19 200° S
Mi, 28.09. 20:00 4 1 22 220° SW
Mi, 28.09. 14:00 7 2 36 280° W
Mi, 28.09. 8:00 13 3 41 250° W
Mi, 28.09. 2:00 18 3 32 230° SW
Di, 27.09. 20:00 7 2 54 240° SW
Di, 27.09. 14:00 14 3 43 250° W
Di, 27.09. 8:00 15 3 61 260° W
Ortszeit Stärke Spitze Richtung
km/h Bft. km/h Grad Sektor
Do, 29.09. 6:30 4 1 7 80° O
Do, 29.09. 6:20 4 1 - 80° O
Do, 29.09. 6:10 4 1 - 50° NO
Do, 29.09. 6:00 2 1 6 50° NO
Do, 29.09. 5:50 2 1 - 50° NO
Do, 29.09. 5:40 2 1 - 70° O
Do, 29.09. 5:30 4 1 4 330° NW
Do, 29.09. 5:00 4 1 7 310° NW
Do, 29.09. 4:30 4 1 7 220° SW
Do, 29.09. 4:00 6 1 9 160° S
Do, 29.09. 3:30 6 1 9 150° SO
Ortszeit Untergrenze Bedeckung Gattung
total tief tief mittel hoch
Do, 29.09. 2:00 90 m 8/8 8/8 - - -
Mi, 28.09. 20:00 60 m 8/8 8/8 - - -
Mi, 28.09. 14:00 270 m 8/8 8/8 - - -
Mi, 28.09. 8:00 60 m 8/8 8/8 - - -
Mi, 28.09. 2:00 60 m 8/8 8/8 - - -
Di, 27.09. 20:00 30 m 8/8 8/8 - - -
Di, 27.09. 14:00 480 m 7/8 7/8 - - -
Di, 27.09. 8:00 30 m 8/8 8/8 - - -
Ortszeit Bedeckungsgrad in Achtel und Wolkenuntergrenze
Do, 29.09. 6:30 7(660m) 8(870m)
Do, 29.09. 6:20 7(660m) 8(870m)
Do, 29.09. 6:10 8
Do, 29.09. 6:00 6(660m) 8(870m) 8(5100m)
Do, 29.09. 5:50 6(660m) 8(870m) 8(5100m)
Do, 29.09. 5:40 8
Do, 29.09. 5:30 2(210m) 8(900m) 8(2400m)
Do, 29.09. 5:00 6(90m) 7(210m) 7(720m)
Do, 29.09. 4:30 8(90m) 8(360m) 8(810m)
Do, 29.09. 4:00 2(60m) 6(180m) 8(930m)
Do, 29.09. 3:30 7(120m) 7(600m) 8(1020m)
Ortszeit Stationsdruck (hPa) Tendenz (hPa in 3 Std.)
Do, 29.09. 2:00 899 - 0,4
Mi, 28.09. 20:00 899 + 0,7
Mi, 28.09. 14:00 898 + 0,5
Mi, 28.09. 8:00 895 - 0,8
Mi, 28.09. 2:00 899 - 1,9
Di, 27.09. 20:00 900 + 0,2
Di, 27.09. 14:00 900 - 0,3
Di, 27.09. 8:00 899 + 1,4
Ortszeit Stationsdruck (hPa) Tendenz (hPa in 3 Std.)
Do, 29.09. 6:30 898 - 0,4
Do, 29.09. 6:20 898 keine Meldung
Do, 29.09. 6:10 898 keine Meldung
Do, 29.09. 6:00 898 - 0,7
Do, 29.09. 5:50 898 keine Meldung
Do, 29.09. 5:40 898 keine Meldung
Do, 29.09. 5:30 898 - 0,7
Do, 29.09. 5:00 898 - 0,7
Do, 29.09. 4:30 899 - 0,5
Do, 29.09. 4:00 899 - 0,6
Do, 29.09. 3:30 899 - 0,5
Ortszeit Schneehöhe (cm)
Do, 29.09. 2:00 0
Mi, 28.09. 20:00 0
Mi, 28.09. 14:00 0
Mi, 28.09. 8:00 0
Mi, 28.09. 2:00 0
Di, 27.09. 20:00 0
Di, 27.09. 14:00 0
Di, 27.09. 8:00 0
Ortszeit Schneehöhe (cm)
Do, 29.09. 6:30 0
Do, 29.09. 6:20 0
Do, 29.09. 6:10 0
Do, 29.09. 6:00 0
Do, 29.09. 5:50 0
Do, 29.09. 5:40 0
Do, 29.09. 5:30 0
Do, 29.09. 5:00 0
Do, 29.09. 4:30 0
Do, 29.09. 4:00 0
Do, 29.09. 3:30 0
Link zu dieser Seite / Seite empfehlen

Das Wetter in ...